createdAt,value
2023-04-30T00:01:22.946Z,99.90
2023-04-30T00:03:49.849Z,99.90
2023-04-30T00:06:16.908Z,99.90
2023-04-30T00:08:43.813Z,99.90
2023-04-30T00:11:10.872Z,99.90
2023-04-30T00:13:37.714Z,99.90
2023-04-30T00:16:05.100Z,99.90
2023-04-30T00:18:32.016Z,99.90
2023-04-30T00:20:58.862Z,99.90
2023-04-30T00:23:25.793Z,99.90
2023-04-30T00:25:52.574Z,99.90
2023-04-30T00:28:19.388Z,99.90
2023-04-30T00:30:46.681Z,99.90
2023-04-30T00:33:13.593Z,99.90
2023-04-30T00:35:40.791Z,99.90
2023-04-30T00:38:07.623Z,99.90
2023-04-30T00:40:36.182Z,99.90
2023-04-30T00:43:03.196Z,99.90
2023-04-30T00:45:30.044Z,99.90
2023-04-30T00:47:56.911Z,99.90
2023-04-30T00:50:24.936Z,99.90
2023-04-30T00:52:51.884Z,99.90
2023-04-30T00:55:18.947Z,99.90
2023-04-30T00:57:46.786Z,99.90
2023-04-30T01:00:14.294Z,99.90
2023-04-30T01:05:08.971Z,99.90
2023-04-30T01:07:39.132Z,99.90
2023-04-30T01:10:07.354Z,99.90
2023-04-30T01:12:52.959Z,99.90
2023-04-30T01:15:29.315Z,99.90
2023-04-30T01:18:23.238Z,99.90
2023-04-30T01:20:54.917Z,99.90
2023-04-30T01:23:49.785Z,99.90
2023-04-30T01:26:26.100Z,99.90
2023-04-30T01:28:54.548Z,99.90
2023-04-30T01:31:24.171Z,99.90
2023-04-30T01:33:51.092Z,99.90
2023-04-30T01:37:01.158Z,99.90
2023-04-30T01:39:54.529Z,99.90
2023-04-30T01:42:23.404Z,99.90
2023-04-30T01:45:12.265Z,99.90
2023-04-30T01:48:05.487Z,99.90
2023-04-30T01:50:52.121Z,99.90
2023-04-30T01:53:23.820Z,99.90
2023-04-30T01:55:57.533Z,99.90
2023-04-30T01:58:25.989Z,99.90
2023-04-30T02:00:53.660Z,99.90
2023-04-30T02:03:20.585Z,99.90
2023-04-30T02:05:48.490Z,99.90
2023-04-30T02:08:15.349Z,99.90
2023-04-30T02:10:42.230Z,99.90
2023-04-30T02:13:09.129Z,99.90
2023-04-30T02:15:36.045Z,99.90
2023-04-30T02:18:02.933Z,99.90
2023-04-30T02:20:29.798Z,99.90
2023-04-30T02:22:56.642Z,99.90
2023-04-30T02:25:23.494Z,99.90
2023-04-30T02:27:51.476Z,99.90
2023-04-30T02:30:19.934Z,99.90
2023-04-30T02:32:47.014Z,99.90
2023-04-30T02:35:13.849Z,99.90
2023-04-30T02:37:40.854Z,99.90
2023-04-30T02:40:09.213Z,99.90
2023-04-30T02:42:36.021Z,99.90
2023-04-30T02:45:02.795Z,99.90
2023-04-30T02:47:29.631Z,99.90
2023-04-30T02:49:56.813Z,99.90
2023-04-30T02:52:23.863Z,99.90
2023-04-30T02:54:51.026Z,99.90
2023-04-30T02:57:17.943Z,99.90
2023-04-30T02:59:46.416Z,99.90
2023-04-30T03:02:14.040Z,99.90
2023-04-30T03:04:40.932Z,99.90
2023-04-30T03:07:07.920Z,99.90
2023-04-30T03:09:34.725Z,99.90
2023-04-30T03:12:02.815Z,99.90
2023-04-30T03:14:30.539Z,99.90
2023-04-30T03:16:57.373Z,99.90
2023-04-30T03:19:25.641Z,99.90
2023-04-30T03:21:52.770Z,99.90
2023-04-30T03:24:19.649Z,99.90
2023-04-30T03:26:47.419Z,99.90
2023-04-30T03:29:14.290Z,99.90
2023-04-30T03:31:41.117Z,99.90
2023-04-30T03:34:08.010Z,99.90
2023-04-30T03:36:35.273Z,99.90
2023-04-30T03:39:02.513Z,99.90
2023-04-30T03:41:29.360Z,99.90
2023-04-30T03:43:56.338Z,99.90
2023-04-30T03:46:23.286Z,99.90
2023-04-30T03:48:50.156Z,99.90
2023-04-30T03:51:21.881Z,99.90
2023-04-30T03:53:48.689Z,99.90
2023-04-30T03:56:15.732Z,99.90
2023-04-30T03:58:42.639Z,99.90
2023-04-30T04:01:09.527Z,99.90
2023-04-30T04:03:36.611Z,99.90
2023-04-30T04:06:03.658Z,99.90
2023-04-30T04:08:30.894Z,99.90
2023-04-30T04:10:57.764Z,99.90
2023-04-30T04:13:24.633Z,99.90
2023-04-30T04:15:51.481Z,99.90
2023-04-30T04:18:18.359Z,99.90
2023-04-30T04:20:45.165Z,99.90
2023-04-30T04:23:12.093Z,99.90
2023-04-30T04:25:39.530Z,99.90
2023-04-30T04:28:06.630Z,99.90
2023-04-30T04:30:34.082Z,99.90
2023-04-30T04:33:01.025Z,99.90
2023-04-30T04:35:28.140Z,99.90
2023-04-30T04:37:55.007Z,99.90
2023-04-30T04:40:21.994Z,99.90
2023-04-30T04:42:51.606Z,99.90
2023-04-30T04:45:19.537Z,99.90
2023-04-30T04:47:47.022Z,99.90
2023-04-30T04:50:14.453Z,99.90
2023-04-30T04:52:41.502Z,99.90
2023-04-30T04:55:08.846Z,99.90
2023-04-30T04:57:36.017Z,99.90
2023-04-30T05:00:02.910Z,99.90
2023-04-30T05:02:30.741Z,99.90
2023-04-30T05:04:58.018Z,99.90
2023-04-30T05:07:25.286Z,99.90
2023-04-30T05:09:52.188Z,99.90
2023-04-30T05:12:19.182Z,99.90
2023-04-30T05:14:46.179Z,99.90
2023-04-30T05:17:12.996Z,99.90
2023-04-30T05:19:39.786Z,99.90
2023-04-30T05:22:06.603Z,99.90
2023-04-30T05:24:34.339Z,99.90
2023-04-30T05:27:02.854Z,99.90
2023-04-30T05:29:29.746Z,99.90
2023-04-30T05:31:56.744Z,99.90
2023-04-30T05:34:24.656Z,99.90
2023-04-30T05:36:51.491Z,99.90
2023-04-30T05:39:18.283Z,99.90
2023-04-30T05:41:45.566Z,99.90
2023-04-30T05:44:12.435Z,99.90
2023-04-30T05:46:39.462Z,99.90
2023-04-30T05:49:06.233Z,99.90
2023-04-30T05:51:33.028Z,99.90
2023-04-30T05:54:00.562Z,99.90
2023-04-30T05:56:28.119Z,99.90
2023-04-30T05:59:00.363Z,99.90
2023-04-30T06:01:31.234Z,99.90
2023-04-30T06:04:00.673Z,99.90
2023-04-30T06:06:29.046Z,99.90
2023-04-30T06:08:59.624Z,99.90
2023-04-30T06:11:27.684Z,99.90
2023-04-30T06:13:54.610Z,99.90
2023-04-30T06:16:21.580Z,99.90
2023-04-30T06:18:48.801Z,99.90
2023-04-30T06:21:15.704Z,99.90
2023-04-30T06:23:42.534Z,99.90
2023-04-30T06:26:09.400Z,99.90
2023-04-30T06:28:36.225Z,99.90
2023-04-30T06:31:03.910Z,99.90
2023-04-30T06:33:31.111Z,99.90
2023-04-30T06:35:58.391Z,99.90
2023-04-30T06:38:27.735Z,99.90
2023-04-30T06:40:56.886Z,99.90
2023-04-30T06:43:24.817Z,99.90
2023-04-30T06:45:52.824Z,99.90
2023-04-30T06:48:19.651Z,99.90
2023-04-30T06:50:47.002Z,99.90
2023-04-30T06:53:16.858Z,99.90
2023-04-30T06:55:44.986Z,99.90
2023-04-30T06:58:13.436Z,99.90
2023-04-30T07:00:42.936Z,99.90
2023-04-30T07:03:09.896Z,99.90
2023-04-30T07:05:36.758Z,99.90
2023-04-30T07:08:04.876Z,99.90
2023-04-30T07:10:31.827Z,99.90
2023-04-30T07:12:59.464Z,99.90
2023-04-30T07:15:26.738Z,99.90
2023-04-30T07:17:55.360Z,99.90
2023-04-30T07:20:24.024Z,99.90
2023-04-30T07:22:50.877Z,99.90
2023-04-30T07:25:19.199Z,99.90
2023-04-30T07:27:46.536Z,99.90
2023-04-30T07:30:14.715Z,99.90
2023-04-30T07:32:44.562Z,99.90
2023-04-30T07:35:11.520Z,99.90
2023-04-30T07:37:40.483Z,99.90
2023-04-30T07:40:15.296Z,99.90
2023-04-30T07:42:47.673Z,99.90
2023-04-30T07:45:17.584Z,99.90
2023-04-30T07:47:44.672Z,99.90
2023-04-30T07:50:12.527Z,99.90
2023-04-30T07:52:39.614Z,99.90
2023-04-30T07:55:06.910Z,99.90
2023-04-30T07:57:33.702Z,99.90
2023-04-30T08:00:00.452Z,99.90
2023-04-30T08:02:27.766Z,99.90
2023-04-30T08:04:54.715Z,99.90
2023-04-30T08:07:21.885Z,99.90
2023-04-30T08:09:48.693Z,99.90
2023-04-30T08:12:17.144Z,99.90
2023-04-30T08:19:39.044Z,99.90
2023-04-30T08:22:06.265Z,99.90
2023-04-30T08:24:33.881Z,99.90
2023-04-30T08:27:04.137Z,99.90
2023-04-30T08:29:30.946Z,99.90
2023-04-30T08:34:28.537Z,99.90
2023-04-30T08:36:56.724Z,99.90
2023-04-30T08:39:23.624Z,99.90
2023-04-30T08:42:00.284Z,99.90
2023-04-30T08:44:27.921Z,99.90
2023-04-30T08:46:56.613Z,99.90
2023-04-30T08:49:24.800Z,99.90
2023-04-30T08:54:21.130Z,99.90
2023-04-30T08:56:48.659Z,99.90
2023-04-30T08:59:15.485Z,99.90
2023-04-30T09:01:42.711Z,99.90
2023-04-30T09:04:09.794Z,99.90
2023-04-30T09:06:36.775Z,99.90
2023-04-30T09:09:20.436Z,99.90
2023-04-30T09:11:48.792Z,99.90
2023-04-30T09:14:25.615Z,99.90
2023-04-30T09:16:52.905Z,99.90
2023-04-30T09:19:27.434Z,99.90
2023-04-30T09:22:03.416Z,99.90
2023-04-30T09:24:48.523Z,99.90
2023-04-30T09:27:20.225Z,99.90
2023-04-30T09:29:48.955Z,99.90
2023-04-30T09:32:15.846Z,99.90
2023-04-30T09:34:43.632Z,99.90
2023-04-30T09:37:11.726Z,99.90
2023-04-30T09:39:55.630Z,99.90
2023-04-30T09:42:22.901Z,99.90
2023-04-30T09:44:57.119Z,99.90
2023-04-30T09:47:24.028Z,99.90
2023-04-30T09:49:54.415Z,99.90
2023-04-30T09:52:21.722Z,99.90
2023-04-30T09:54:49.723Z,99.90
2023-04-30T09:57:23.881Z,99.90
2023-04-30T09:59:54.381Z,99.90
2023-04-30T10:02:23.610Z,99.90
2023-04-30T10:04:56.374Z,99.90
2023-04-30T10:07:29.536Z,99.90
2023-04-30T10:10:12.096Z,99.90
2023-04-30T10:13:01.922Z,99.90
2023-04-30T10:15:40.657Z,99.90
2023-04-30T10:18:31.799Z,99.90
2023-04-30T10:21:10.361Z,99.90
2023-04-30T10:23:39.684Z,99.90
2023-04-30T10:26:12.812Z,99.90
2023-04-30T10:28:41.087Z,99.90
2023-04-30T10:31:11.782Z,99.90
2023-04-30T10:34:17.031Z,99.90
2023-04-30T10:36:53.538Z,99.90
2023-04-30T10:39:27.672Z,99.90
2023-04-30T10:42:05.642Z,99.90
2023-04-30T10:44:35.316Z,99.10
2023-04-30T10:47:03.489Z,98.30
2023-04-30T10:49:30.717Z,98.50
2023-04-30T10:52:06.422Z,97.50
2023-04-30T10:54:37.838Z,97.60
2023-04-30T10:57:18.388Z,96.20
2023-04-30T11:00:07.340Z,96.90
2023-04-30T11:02:42.909Z,98.20
2023-04-30T11:05:11.993Z,98.00
2023-04-30T11:07:48.912Z,97.10
2023-04-30T11:10:16.780Z,97.40
2023-04-30T11:12:55.798Z,96.70
2023-04-30T11:15:29.048Z,95.70
2023-04-30T11:17:59.762Z,96.10
2023-04-30T11:20:27.034Z,97.00
2023-04-30T11:23:25.053Z,95.30
2023-04-30T11:26:01.306Z,95.20
2023-04-30T11:28:32.008Z,95.30
2023-04-30T11:31:00.080Z,95.50
2023-04-30T11:33:29.233Z,96.00
2023-04-30T11:35:57.783Z,95.70
2023-04-30T11:38:30.198Z,96.10
2023-04-30T11:40:58.238Z,95.90
2023-04-30T11:43:27.514Z,95.40
2023-04-30T11:46:18.141Z,95.40
2023-04-30T11:48:46.546Z,95.20
2023-04-30T11:51:24.948Z,95.40
2023-04-30T11:53:53.176Z,95.10
2023-04-30T11:56:21.572Z,94.90
2023-04-30T11:58:49.933Z,95.80
2023-04-30T12:01:18.147Z,95.40
2023-04-30T12:03:51.268Z,96.60
2023-04-30T12:06:28.908Z,95.90
2023-04-30T12:08:57.435Z,95.30
2023-04-30T12:11:26.611Z,95.20
2023-04-30T12:13:55.675Z,95.20
2023-04-30T12:16:25.144Z,94.10
2023-04-30T12:18:52.889Z,95.40
2023-04-30T12:21:21.307Z,94.90
2023-04-30T12:23:48.118Z,95.30
2023-04-30T12:26:15.086Z,94.90
2023-04-30T12:28:43.002Z,95.20
2023-04-30T12:31:10.149Z,95.30
2023-04-30T12:33:39.114Z,94.60
2023-04-30T12:36:11.357Z,95.30
2023-04-30T12:38:38.193Z,94.40
2023-04-30T12:41:05.340Z,94.30
2023-04-30T12:43:32.143Z,94.10
2023-04-30T12:46:01.323Z,94.00
2023-04-30T12:48:28.251Z,93.70
2023-04-30T12:50:59.107Z,94.00
2023-04-30T12:53:26.475Z,94.50
2023-04-30T12:56:10.312Z,94.80
2023-04-30T12:58:39.501Z,94.50
2023-04-30T13:01:10.960Z,94.00
2023-04-30T13:03:38.111Z,94.90
2023-04-30T13:06:07.078Z,95.50
2023-04-30T13:08:42.580Z,94.20
2023-04-30T13:11:17.189Z,93.70
2023-04-30T13:13:44.105Z,93.80
2023-04-30T13:16:11.008Z,95.90
2023-04-30T13:18:37.907Z,94.50
2023-04-30T13:21:04.718Z,93.90
2023-04-30T13:23:35.963Z,94.00
2023-04-30T13:26:08.339Z,94.50
2023-04-30T13:28:35.186Z,94.20
2023-04-30T13:31:02.887Z,94.80
2023-04-30T13:33:29.706Z,93.80
2023-04-30T13:35:56.528Z,93.50
2023-04-30T13:38:23.361Z,93.20
2023-04-30T13:40:50.580Z,93.80
2023-04-30T13:43:17.734Z,94.20
2023-04-30T13:45:44.697Z,94.60
2023-04-30T13:48:11.587Z,95.10
2023-04-30T13:50:38.404Z,94.80
2023-04-30T13:53:06.900Z,94.40
2023-04-30T13:55:33.811Z,94.80
2023-04-30T13:58:00.644Z,95.10
2023-04-30T14:00:28.611Z,95.10
2023-04-30T14:02:55.929Z,94.70
2023-04-30T14:05:22.953Z,93.70
2023-04-30T14:07:49.788Z,94.00
2023-04-30T14:10:16.731Z,93.90
2023-04-30T14:12:43.651Z,93.80
2023-04-30T14:15:10.818Z,94.60
2023-04-30T14:17:37.905Z,94.60
2023-04-30T14:20:05.213Z,95.50
2023-04-30T14:22:34.654Z,94.70
2023-04-30T14:25:01.634Z,95.20
2023-04-30T14:27:28.427Z,95.30
2023-04-30T14:29:55.464Z,95.30
2023-04-30T14:32:26.141Z,94.70
2023-04-30T14:34:53.532Z,94.90
2023-04-30T14:37:21.866Z,95.00
2023-04-30T14:39:50.848Z,94.20
2023-04-30T14:42:17.788Z,94.10
2023-04-30T14:44:44.611Z,94.40
2023-04-30T14:47:11.687Z,94.30
2023-04-30T14:49:40.173Z,95.10
2023-04-30T14:52:07.033Z,94.30
2023-04-30T14:54:34.131Z,94.20
2023-04-30T14:57:01.988Z,94.30
2023-04-30T14:59:29.346Z,94.60
2023-04-30T15:01:56.130Z,94.10
2023-04-30T15:04:22.956Z,93.90
2023-04-30T15:06:51.438Z,94.20
2023-04-30T15:09:18.820Z,94.30
2023-04-30T15:11:45.982Z,94.10
2023-04-30T15:14:13.872Z,94.30
2023-04-30T15:16:41.685Z,94.90
2023-04-30T15:19:09.980Z,95.10
2023-04-30T15:21:36.809Z,94.80
2023-04-30T15:24:03.678Z,94.70
2023-04-30T15:26:30.514Z,94.60
2023-04-30T15:28:57.323Z,95.00
2023-04-30T15:31:24.679Z,94.40
2023-04-30T15:33:51.760Z,94.30
2023-04-30T15:36:18.958Z,94.10
2023-04-30T15:38:45.818Z,94.10
2023-04-30T15:41:12.600Z,94.40
2023-04-30T15:43:39.372Z,94.10
2023-04-30T15:46:06.258Z,94.00
2023-04-30T15:48:34.736Z,94.40
2023-04-30T15:51:02.083Z,94.40
2023-04-30T15:53:29.925Z,94.10
2023-04-30T15:55:57.487Z,94.00
2023-04-30T15:58:24.437Z,94.70
2023-04-30T16:00:51.559Z,94.80
2023-04-30T16:03:19.051Z,95.50
2023-04-30T16:05:45.986Z,95.20
2023-04-30T16:08:14.324Z,94.30
2023-04-30T16:10:42.264Z,94.60
2023-04-30T16:13:09.101Z,94.50
2023-04-30T16:15:37.307Z,94.80
2023-04-30T16:18:05.512Z,94.40
2023-04-30T16:20:32.469Z,94.50
2023-04-30T16:22:59.579Z,94.70
2023-04-30T16:25:26.763Z,94.40
2023-04-30T16:27:55.115Z,94.80
2023-04-30T16:30:21.960Z,94.80
2023-04-30T16:32:50.108Z,94.80
2023-04-30T16:35:16.966Z,94.80
2023-04-30T16:37:45.274Z,94.50
2023-04-30T16:40:14.291Z,94.00
2023-04-30T16:42:43.379Z,93.70
2023-04-30T16:45:10.931Z,93.90
2023-04-30T16:47:37.802Z,94.40
2023-04-30T16:50:05.123Z,94.20
2023-04-30T16:52:33.371Z,94.00
2023-04-30T16:55:02.857Z,94.40
2023-04-30T16:57:30.975Z,94.90
2023-04-30T17:00:00.335Z,94.70
2023-04-30T17:02:27.341Z,95.10
2023-04-30T17:04:54.286Z,94.90
2023-04-30T17:07:23.777Z,95.20
2023-04-30T17:09:53.728Z,94.50
2023-04-30T17:12:21.641Z,95.00
2023-04-30T17:14:48.449Z,95.00
2023-04-30T17:17:17.586Z,95.10
2023-04-30T17:19:46.294Z,95.40
2023-04-30T17:22:13.304Z,95.70
2023-04-30T17:24:40.102Z,95.50
2023-04-30T17:27:09.192Z,95.10
2023-04-30T17:29:36.121Z,95.70
2023-04-30T17:32:03.024Z,95.90
2023-04-30T17:34:30.057Z,95.70
2023-04-30T17:36:57.551Z,95.60
2023-04-30T17:39:25.218Z,95.50
2023-04-30T17:41:52.102Z,95.10
2023-04-30T17:44:19.554Z,95.10
2023-04-30T17:46:47.063Z,95.20
2023-04-30T17:49:15.045Z,95.10
2023-04-30T17:51:44.839Z,94.70
2023-04-30T17:54:14.272Z,94.70
2023-04-30T17:56:41.122Z,94.40
2023-04-30T17:59:08.501Z,94.50
2023-04-30T18:01:42.805Z,95.10
2023-04-30T18:04:09.860Z,95.00
2023-04-30T18:06:36.775Z,95.10
2023-04-30T18:09:04.395Z,94.90
2023-04-30T18:11:34.094Z,95.20
2023-04-30T18:14:02.298Z,95.30
2023-04-30T18:16:29.247Z,95.00
2023-04-30T18:18:58.119Z,95.70
2023-04-30T18:21:25.241Z,95.40
2023-04-30T18:23:52.861Z,95.70
2023-04-30T18:26:23.024Z,96.30
2023-04-30T18:28:50.359Z,96.60
2023-04-30T18:31:17.187Z,97.10
2023-04-30T18:33:44.921Z,96.50
2023-04-30T18:36:12.825Z,96.70
2023-04-30T18:38:39.718Z,96.60
2023-04-30T18:41:08.455Z,97.10
2023-04-30T18:43:38.820Z,97.30
2023-04-30T18:46:07.836Z,97.20
2023-04-30T18:48:35.766Z,97.30
2023-04-30T18:51:03.014Z,97.70
2023-04-30T18:53:32.253Z,98.30
2023-04-30T18:55:59.130Z,98.50
2023-04-30T18:58:29.327Z,98.70
2023-04-30T19:01:00.209Z,98.70
2023-04-30T19:03:30.508Z,99.00
2023-04-30T19:05:58.008Z,99.20
2023-04-30T19:08:26.327Z,99.70
2023-04-30T19:10:54.106Z,99.80
2023-04-30T19:13:20.950Z,99.70
2023-04-30T19:15:49.219Z,99.90
2023-04-30T19:18:17.968Z,99.90
2023-04-30T19:20:58.348Z,99.90
2023-04-30T19:23:25.139Z,99.90
2023-04-30T19:25:51.992Z,99.90
2023-04-30T19:28:20.373Z,99.90
2023-04-30T19:30:47.621Z,99.90
2023-04-30T19:33:16.535Z,99.90
2023-04-30T19:35:43.602Z,99.90
2023-04-30T19:38:10.705Z,99.90
2023-04-30T19:40:37.534Z,99.90
2023-04-30T19:43:05.086Z,99.90
2023-04-30T19:45:31.959Z,99.90
2023-04-30T19:48:00.013Z,99.90
2023-04-30T19:50:27.195Z,99.90
2023-04-30T19:52:54.069Z,99.90
2023-04-30T19:55:20.970Z,99.90
2023-04-30T19:57:47.788Z,99.90
2023-04-30T20:00:18.665Z,99.90
2023-04-30T20:02:47.795Z,99.90
2023-04-30T20:05:15.919Z,99.90
2023-04-30T20:07:42.784Z,99.90
2023-04-30T20:10:10.558Z,99.90
2023-04-30T20:12:38.017Z,99.90
2023-04-30T20:15:07.033Z,99.90
2023-04-30T20:17:37.027Z,99.90
2023-04-30T20:20:04.489Z,99.90
2023-04-30T20:22:31.320Z,99.90
2023-04-30T20:24:59.214Z,99.90
2023-04-30T20:27:26.519Z,99.90
2023-04-30T20:29:54.499Z,99.90
2023-04-30T20:32:22.285Z,99.90
2023-04-30T20:34:49.170Z,99.90
2023-04-30T20:37:16.449Z,99.90
2023-04-30T20:39:43.756Z,99.90
2023-04-30T20:42:12.084Z,99.90
2023-04-30T20:44:38.907Z,99.90
2023-04-30T20:47:05.805Z,99.90
2023-04-30T20:49:35.523Z,99.90
2023-04-30T20:52:02.559Z,99.90
2023-04-30T20:54:31.769Z,99.90
2023-04-30T20:56:58.609Z,99.90
2023-04-30T20:59:25.446Z,99.90
2023-04-30T21:01:52.310Z,99.90
2023-04-30T21:04:20.230Z,99.90
2023-04-30T21:06:48.986Z,99.90
2023-04-30T21:09:15.949Z,99.90
2023-04-30T21:11:45.143Z,99.90
2023-04-30T21:14:12.683Z,99.90
2023-04-30T21:16:40.982Z,99.90
2023-04-30T21:19:09.115Z,99.90
2023-04-30T21:21:35.913Z,99.90
2023-04-30T21:24:05.721Z,99.90
2023-04-30T21:26:33.133Z,99.90
2023-04-30T21:29:02.447Z,99.90
2023-04-30T21:31:29.558Z,99.90
2023-04-30T21:33:56.691Z,99.90
2023-04-30T21:36:23.619Z,99.90
2023-04-30T21:38:50.417Z,99.90
2023-04-30T21:41:18.112Z,99.90
2023-04-30T21:43:45.030Z,99.90
2023-04-30T21:46:13.993Z,99.90
2023-04-30T21:48:41.675Z,99.90
2023-04-30T21:51:13.112Z,99.90
2023-04-30T21:53:39.986Z,99.90
2023-04-30T21:56:11.069Z,99.90
2023-04-30T21:58:38.785Z,99.90
2023-04-30T22:01:06.403Z,99.90
2023-04-30T22:03:34.276Z,99.90
2023-04-30T22:06:01.738Z,99.90
2023-04-30T22:08:29.243Z,99.90
2023-04-30T22:10:59.010Z,99.90
2023-04-30T22:13:28.332Z,99.90
2023-04-30T22:15:55.619Z,99.90
2023-04-30T22:18:23.774Z,99.90
2023-04-30T22:20:51.836Z,99.90
2023-04-30T22:23:21.386Z,99.90
2023-04-30T22:25:48.629Z,99.90
2023-04-30T22:28:19.420Z,99.90
2023-04-30T22:30:46.305Z,99.90
2023-04-30T22:33:14.438Z,99.90
2023-04-30T22:35:43.011Z,99.90
2023-04-30T22:38:11.945Z,99.90
2023-04-30T22:40:42.062Z,99.90
2023-04-30T22:43:10.275Z,99.90
2023-04-30T22:45:40.545Z,99.90
2023-04-30T22:48:10.090Z,99.90
2023-04-30T22:50:39.704Z,99.90
2023-04-30T22:53:06.876Z,99.90
2023-04-30T22:55:35.122Z,99.90
2023-04-30T22:58:01.989Z,99.90
2023-04-30T23:00:29.016Z,99.90
2023-04-30T23:02:55.930Z,99.90
2023-04-30T23:05:24.394Z,99.90
2023-04-30T23:07:51.346Z,99.90
2023-04-30T23:10:19.030Z,99.90
2023-04-30T23:12:45.843Z,99.90
2023-04-30T23:15:12.683Z,99.90
2023-04-30T23:17:41.017Z,99.90
2023-04-30T23:20:09.911Z,99.90
2023-04-30T23:22:36.899Z,99.90
2023-04-30T23:25:05.292Z,99.90
2023-04-30T23:27:32.133Z,99.90
2023-04-30T23:29:59.489Z,99.90
2023-04-30T23:32:27.241Z,99.90
2023-04-30T23:34:55.567Z,99.90
2023-04-30T23:37:22.686Z,99.90
2023-04-30T23:39:50.548Z,99.90
2023-04-30T23:42:17.396Z,99.90
2023-04-30T23:44:46.910Z,99.90
2023-04-30T23:47:14.668Z,99.90
2023-04-30T23:49:44.030Z,99.90
2023-04-30T23:52:13.122Z,99.90
2023-04-30T23:54:39.897Z,99.90
2023-04-30T23:57:07.845Z,99.90
2023-04-30T23:59:34.682Z,99.90
